Time;durP1;ratioP1;P1;durP2;ratioP2;P2;SDS_P1;SDS_P2;PMS_P1;PMS_P2;Temp;Humidity;BMP_temperature;BMP_pressure;BME280_temperature;BME280_humidity;BME280_pressure;Samples;Min_cycle;Max_cycle;Signal;HPM_P1;HPM_P2
2021/08/02 00:02:32;;;;;;;11.80;6.12;;;;;;;32.51;41.38;100827.16;144993;577;6002;-84
2021/08/02 00:05:03;;;;;;;11.40;6.57;;;;;;;32.50;41.88;100824.56;144993;592;6002;-83
2021/08/02 00:07:32;;;;;;;12.68;6.15;;;;;;;32.47;41.99;100830.09;144993;563;6002;-83
2021/08/02 00:10:10;;;;;;;14.35;6.40;;;;;;;32.42;41.59;100816.09;144993;738;6002;-84
2021/08/02 00:13:01;;;;;;;15.63;6.10;;;;;;;32.38;41.83;100817.25;144993;631;6002;-85
2021/08/02 00:15:31;;;;;;;14.02;6.28;;;;;;;32.36;42.13;100812.84;144993;572;6003;-90
2021/08/02 00:17:57;;;;;;;12.98;6.10;;;;;;;32.36;41.83;100815.53;144993;593;6002;-82
2021/08/02 00:20:32;;;;;;;10.73;6.00;;;;;;;32.39;41.88;100819.84;144993;637;6002;-83
2021/08/02 00:23:03;;;;;;;11.23;6.45;;;;;;;32.41;42.04;100817.06;144993;667;6002;-83
2021/08/02 00:25:31;;;;;;;15.88;6.75;;;;;;;32.39;41.92;100825.22;144992;613;6002;-84
2021/08/02 00:27:58;;;;;;;9.88;6.00;;;;;;;32.37;41.73;100827.13;144992;706;6002;-83
2021/08/02 00:30:24;;;;;;;12.90;6.10;;;;;;;32.33;41.89;100823.75;144992;607;6002;-83
2021/08/02 00:32:53;;;;;;;12.25;6.00;;;;;;;32.26;42.07;100819.72;144992;583;6002;-83
2021/08/02 00:35:20;;;;;;;13.55;6.10;;;;;;;32.22;41.58;100817.31;144992;586;6002;-83
2021/08/02 00:37:56;;;;;;;11.35;6.00;;;;;;;32.17;41.86;100817.59;144992;574;6002;-83
2021/08/02 00:41:08;;;;;;;14.15;6.30;;;;;;;32.12;41.38;100819.66;144993;684;6002;-84
2021/08/02 00:44:13;;;;;;;10.77;5.72;;;;;;;32.06;41.76;100810.13;144993;654;6000;-84
2021/08/02 00:46:52;;;;;;;11.50;5.65;;;;;;;32.01;41.39;100814.91;144993;588;6000;-85
2021/08/02 00:49:24;;;;;;;12.75;5.70;;;;;;;32.01;41.56;100818.44;144993;563;6002;-84
2021/08/02 00:51:53;;;;;;;11.23;5.68;;;;;;;31.98;41.42;100812.41;144993;690;6002;-84
2021/08/02 00:54:22;;;;;;;8.40;5.18;;;;;;;31.96;40.96;100811.59;144993;669;6002;-84
2021/08/02 00:56:52;;;;;;;8.48;4.90;;;;;;;31.93;40.62;100811.81;144993;642;6002;-83
2021/08/02 00:59:19;;;;;;;9.57;4.95;;;;;;;31.88;40.26;100808.50;144993;572;6002;-83
2021/08/02 01:01:47;;;;;;;12.40;4.82;;;;;;;31.86;39.67;100813.13;144993;629;6002;-84
2021/08/02 01:04:14;;;;;;;9.65;4.90;;;;;;;31.81;39.43;100824.13;144993;563;6002;-83
2021/08/02 01:06:44;;;;;;;12.90;6.05;;;;;;;31.78;39.48;100813.56;144993;563;6002;-85
2021/08/02 01:09:16;;;;;;;11.77;5.90;;;;;;;31.75;39.13;100820.00;144993;564;6002;-83
2021/08/02 01:11:54;;;;;;;11.85;6.25;;;;;;;31.72;39.10;100814.78;144993;625;6002;-83
2021/08/02 01:14:25;;;;;;;9.15;6.25;;;;;;;31.70;39.46;100807.78;144993;608;6002;-84
2021/08/02 01:16:53;;;;;;;14.87;7.70;;;;;;;31.68;39.51;100807.00;144993;711;6002;-83
2021/08/02 01:19:28;;;;;;;15.52;7.90;;;;;;;31.67;39.14;100802.59;144993;655;6002;-84
2021/08/02 01:21:59;;;;;;;11.65;7.87;;;;;;;31.70;38.87;100800.56;144993;673;6002;-84
2021/08/02 01:24:26;;;;;;;15.85;7.68;;;;;;;31.74;38.69;100803.97;144993;650;6002;-84
2021/08/02 01:27:44;;;;;;;12.32;8.52;;;;;;;31.76;39.07;100808.28;144993;659;6002;-83
2021/08/02 01:30:23;;;;;;;15.65;7.57;;;;;;;31.79;38.29;100809.94;144993;700;6002;-83
2021/08/02 01:32:50;;;;;;;12.45;7.30;;;;;;;31.79;38.49;100805.41;144994;590;5002;-82
2021/08/02 01:35:18;;;;;;;12.60;7.07;;;;;;;31.78;38.90;100805.50;144994;618;5002;-81
2021/08/02 01:37:45;;;;;;;14.82;7.12;;;;;;;31.76;38.90;100808.28;144994;570;5002;-84
2021/08/02 01:40:12;;;;;;;11.60;7.25;;;;;;;31.73;38.90;100807.59;144994;570;5002;-85
2021/08/02 01:42:39;;;;;;;13.50;6.68;;;;;;;31.67;38.62;100800.75;144994;636;5002;-84
2021/08/02 01:45:07;;;;;;;13.07;6.00;;;;;;;31.63;37.95;100812.63;144994;733;5002;-85
2021/08/02 01:48:03;;;;;;;10.20;5.97;;;;;;;31.59;38.29;100816.44;144994;673;5002;-84
2021/08/02 01:51:01;;;;;;;10.75;5.80;;;;;;;31.53;38.17;100809.63;144994;683;5004;-82
2021/08/02 01:53:53;;;;;;;14.63;5.97;;;;;;;31.52;37.84;100812.34;144994;593;5002;-84
2021/08/02 01:56:25;;;;;;;10.02;5.60;;;;;;;31.53;38.19;100809.63;144994;567;5004;-83
2021/08/02 01:59:15;;;;;;;13.23;5.47;;;;;;;31.55;38.07;100809.53;144993;629;5004;-84
2021/08/02 02:01:51;;;;;;;15.30;6.20;;;;;;;31.55;37.84;100810.37;144994;661;5002;-82
2021/08/02 02:04:21;;;;;;;12.20;6.15;;;;;;;31.53;38.04;100811.41;144994;569;5002;-84
2021/08/02 02:06:52;;;;;;;18.85;6.15;;;;;;;31.52;37.72;100815.88;144994;728;5002;-84
2021/08/02 02:09:20;;;;;;;13.35;6.82;;;;;;;31.46;37.74;100816.22;144994;585;5002;-85
2021/08/02 02:11:50;;;;;;;17.87;7.37;;;;;;;31.42;38.34;100810.19;144994;589;5002;-83
2021/08/02 02:14:18;;;;;;;13.52;7.28;;;;;;;31.40;38.50;100816.56;144994;666;5002;-84
2021/08/02 02:16:49;;;;;;;18.33;7.95;;;;;;;31.37;38.39;100808.69;144994;573;5002;-84
2021/08/02 02:19:20;;;;;;;18.92;8.02;;;;;;;31.33;38.64;100810.69;144994;563;5002;-83
2021/08/02 02:21:53;;;;;;;24.37;8.30;;;;;;;31.26;39.12;100815.53;144994;587;5003;-84
2021/08/02 02:24:24;;;;;;;16.77;8.07;;;;;;;31.23;39.40;100810.34;144994;579;5002;-83
2021/08/02 02:26:53;;;;;;;19.62;8.40;;;;;;;31.24;40.00;100809.41;144994;571;5002;-84
2021/08/02 02:29:22;;;;;;;16.90;8.20;;;;;;;31.27;39.56;100819.06;144994;579;5002;-84
2021/08/02 02:31:50;;;;;;;20.30;8.23;;;;;;;31.29;38.97;100826.09;144994;662;5002;-84
2021/08/02 02:34:18;;;;;;;18.52;7.50;;;;;;;31.32;39.40;100826.87;144994;657;5002;-84
2021/08/02 02:36:46;;;;;;;15.52;7.82;;;;;;;31.30;39.81;100835.00;144994;569;5002;-84
2021/08/02 02:39:13;;;;;;;13.05;7.78;;;;;;;31.25;39.50;100837.94;144993;596;5002;-83
2021/08/02 02:41:42;;;;;;;16.17;7.25;;;;;;;31.22;39.54;100832.72;144994;662;5002;-84
2021/08/02 02:44:08;;;;;;;13.85;7.40;;;;;;;31.20;39.54;100831.09;144994;617;5002;-84
2021/08/02 02:46:35;;;;;;;15.52;7.80;;;;;;;31.19;39.67;100832.03;144994;577;5002;-83
2021/08/02 02:49:04;;;;;;;17.62;7.65;;;;;;;31.16;38.88;100832.22;144994;579;5002;-83
2021/08/02 02:51:32;;;;;;;13.60;7.65;;;;;;;31.13;39.29;100830.56;144994;580;5002;-84
2021/08/02 02:54:00;;;;;;;18.83;7.82;;;;;;;31.09;38.75;100824.50;144994;636;5002;-84
2021/08/02 02:56:27;;;;;;;16.27;7.28;;;;;;;31.04;39.28;100812.31;144994;569;5002;-83
2021/08/02 02:58:58;;;;;;;14.48;6.62;;;;;;;31.01;38.99;100820.53;144994;581;5002;-84
2021/08/02 03:01:37;;;;;;;15.40;6.57;;;;;;;31.04;39.27;100817.69;144994;587;5002;-85
2021/08/02 03:04:07;;;;;;;16.60;7.18;;;;;;;31.03;39.05;100823.97;144994;655;5002;-85
2021/08/02 03:06:35;;;;;;;18.05;7.55;;;;;;;31.03;39.31;100832.88;144994;592;5002;-84
2021/08/02 03:09:02;;;;;;;13.10;7.03;;;;;;;31.04;39.32;100833.75;144994;686;5002;-85
2021/08/02 03:11:30;;;;;;;15.52;7.70;;;;;;;31.05;39.25;100844.41;144993;574;5002;-84
2021/08/02 03:13:57;;;;;;;21.12;7.65;;;;;;;31.05;39.33;100846.19;144994;630;5003;-85
2021/08/02 03:16:24;;;;;;;15.93;7.00;;;;;;;31.03;38.92;100846.28;144994;569;5002;-84
2021/08/02 03:18:51;;;;;;;15.88;7.62;;;;;;;31.01;39.41;100842.81;144993;583;5002;-85
2021/08/02 03:21:19;;;;;;;21.05;10.25;;;;;;;31.00;39.07;100849.12;144994;590;5002;-83
2021/08/02 03:24:12;;;;;;;17.33;8.88;;;;;;;30.98;38.92;100858.22;144993;596;5002;-84
2021/08/02 03:27:04;;;;;;;18.87;8.30;;;;;;;30.96;39.54;100860.06;144994;619;5002;-85
2021/08/02 03:29:42;;;;;;;15.38;7.35;;;;;;;30.97;39.60;100860.00;144994;601;5004;-83
2021/08/02 03:32:15;;;;;;;15.27;7.37;;;;;;;31.01;39.75;100863.41;144994;594;5004;-84
2021/08/02 03:34:45;;;;;;;22.95;7.50;;;;;;;31.08;39.73;100870.16;144994;577;5004;-84
2021/08/02 03:37:18;;;;;;;14.90;6.90;;;;;;;31.10;39.59;100865.56;144994;623;5004;-84
2021/08/02 03:39:45;;;;;;;11.20;6.00;;;;;;;31.10;39.11;100871.81;144994;591;5004;-84
2021/08/02 03:42:13;;;;;;;13.27;6.00;;;;;;;31.10;39.20;100876.28;144994;585;5004;-85
2021/08/02 03:44:40;;;;;;;10.32;5.78;;;;;;;31.08;38.88;100886.25;144994;568;5004;-83
2021/08/02 03:47:07;;;;;;;11.30;5.97;;;;;;;31.06;39.18;100888.16;144994;567;5004;-82
2021/08/02 03:49:34;;;;;;;15.88;5.53;;;;;;;31.03;38.85;100891.00;144994;581;5004;-84
2021/08/02 03:52:01;;;;;;;10.38;5.78;;;;;;;31.00;38.78;100894.69;144994;588;5004;-83
2021/08/02 03:54:30;;;;;;;12.98;5.57;;;;;;;30.98;39.09;100891.22;144994;582;5004;-85
2021/08/02 03:56:58;;;;;;;13.68;5.75;;;;;;;30.98;39.13;100898.41;144994;638;5004;-84
2021/08/02 03:59:25;;;;;;;10.05;5.93;;;;;;;30.97;38.94;100892.16;144994;568;5004;-85
2021/08/02 04:01:52;;;;;;;14.45;6.10;;;;;;;30.96;38.84;100890.47;144994;588;5004;-84
2021/08/02 04:04:19;;;;;;;13.27;5.70;;;;;;;30.96;39.26;100890.47;144994;568;5004;-85
2021/08/02 04:06:47;;;;;;;14.43;5.95;;;;;;;30.98;38.93;100888.56;144994;574;5004;-84
2021/08/02 04:09:14;;;;;;;21.58;6.68;;;;;;;30.97;39.38;100886.81;144994;698;5004;-86
2021/08/02 04:11:42;;;;;;;13.32;6.65;;;;;;;30.99;38.75;100884.94;144994;593;5004;-84
2021/08/02 04:14:09;;;;;;;12.70;6.87;;;;;;;30.98;38.78;100893.06;144994;579;5005;-85
2021/08/02 04:16:37;;;;;;;20.90;7.65;;;;;;;30.98;38.83;100887.69;144994;579;5004;-82
2021/08/02 04:19:05;;;;;;;14.70;7.50;;;;;;;30.92;37.66;100886.16;144994;568;5004;-85
2021/08/02 04:21:33;;;;;;;16.40;7.82;;;;;;;30.90;38.80;100901.47;144994;612;5005;-84
2021/08/02 04:24:00;;;;;;;24.63;7.45;;;;;;;30.89;38.66;100894.34;144994;621;5004;-83
2021/08/02 04:26:26;;;;;;;15.60;6.97;;;;;;;30.88;38.28;100898.88;144994;625;5004;-82
2021/08/02 04:28:56;;;;;;;14.25;6.95;;;;;;;30.89;38.12;100895.25;144994;640;5004;-83
2021/08/02 04:31:25;;;;;;;14.20;6.62;;;;;;;30.92;37.95;100904.91;144994;564;5004;-85
2021/08/02 04:33:54;;;;;;;13.55;6.30;;;;;;;30.93;37.75;100907.53;144994;691;5004;-82
2021/08/02 04:36:25;;;;;;;19.85;6.55;;;;;;;30.96;37.97;100903.84;144994;580;5004;-84
2021/08/02 04:38:53;;;;;;;17.12;6.25;;;;;;;30.98;38.03;100912.69;144994;632;5004;-84
2021/08/02 04:41:20;;;;;;;13.88;5.30;;;;;;;31.02;37.49;100911.56;144994;585;5004;-83
2021/08/02 04:43:46;;;;;;;11.95;5.50;;;;;;;31.08;37.59;100915.72;144994;571;5004;-84
2021/08/02 04:46:13;;;;;;;14.82;5.40;;;;;;;31.09;37.09;100912.97;144994;583;5004;-84
2021/08/02 04:48:40;;;;;;;11.88;5.30;;;;;;;31.11;37.11;100915.56;144994;599;5004;-83
2021/08/02 04:51:07;;;;;;;14.20;5.62;;;;;;;31.14;36.83;100919.91;144994;577;5004;-83
2021/08/02 04:53:33;;;;;;;13.30;5.45;;;;;;;31.14;37.00;100923.44;144993;648;5004;-83
2021/08/02 04:56:00;;;;;;;11.38;5.30;;;;;;;31.15;36.75;100917.16;144994;576;5002;-82
2021/08/02 04:58:33;;;;;;;17.65;6.12;;;;;;;31.17;36.24;100919.75;144994;629;5002;-84
2021/08/02 05:01:01;;;;;;;14.93;5.47;;;;;;;31.22;36.28;100923.91;144994;664;5002;-84
2021/08/02 05:03:27;;;;;;;14.60;6.22;;;;;;;31.24;36.37;100918.47;144994;593;5002;-85
2021/08/02 05:05:55;;;;;;;13.93;5.60;;;;;;;31.21;36.42;100922.19;144994;684;5002;-84
2021/08/02 05:08:26;;;;;;;17.87;5.82;;;;;;;31.24;36.58;100921.13;144994;570;5002;-84
2021/08/02 05:10:53;;;;;;;12.32;5.68;;;;;;;31.29;35.98;100922.63;144994;600;5002;-82
2021/08/02 05:13:19;;;;;;;12.57;5.53;;;;;;;31.27;37.13;100921.81;144994;571;5002;-83
2021/08/02 05:15:46;;;;;;;14.60;6.18;;;;;;;31.33;36.95;100922.47;144994;639;5002;-84
2021/08/02 05:18:14;;;;;;;21.52;6.40;;;;;;;31.39;36.58;100936.41;144994;608;5002;-82
2021/08/02 05:20:42;;;;;;;16.98;6.22;;;;;;;31.44;36.49;100928.97;144994;671;5002;-83
2021/08/02 05:23:08;;;;;;;14.55;5.97;;;;;;;31.47;37.08;100926.13;144994;682;5002;-84
2021/08/02 05:25:35;;;;;;;19.30;6.62;;;;;;;31.53;37.06;100926.75;144994;574;5002;-85
2021/08/02 05:28:02;;;;;;;13.65;6.32;;;;;;;31.57;37.13;100929.19;144994;636;5003;-84
2021/08/02 05:30:35;;;;;;;18.45;6.57;;;;;;;31.67;37.10;100934.06;144994;577;5002;-84
2021/08/02 05:33:10;;;;;;;16.60;6.95;;;;;;;31.79;36.69;100942.28;144994;677;5002;-85
2021/08/02 05:35:38;;;;;;;19.55;7.70;;;;;;;31.94;36.45;100937.84;144994;564;5002;-84
2021/08/02 05:38:05;;;;;;;22.58;8.57;;;;;;;32.04;36.65;100946.28;144993;583;5002;-84
2021/08/02 05:40:35;;;;;;;17.08;9.00;;;;;;;32.10;36.82;100945.09;144994;596;5002;-83
2021/08/02 05:43:02;;;;;;;17.77;8.75;;;;;;;32.16;37.16;100942.06;144994;587;5002;-83
2021/08/02 05:45:28;;;;;;;24.67;10.30;;;;;;;32.24;36.32;100949.66;144994;570;5002;-84
2021/08/02 05:47:55;;;;;;;32.78;11.25;;;;;;;32.25;36.57;100952.28;144994;571;5002;-84
2021/08/02 05:50:22;;;;;;;25.83;11.75;;;;;;;32.24;36.62;100947.00;144994;575;5002;-84
2021/08/02 05:52:50;;;;;;;24.50;12.10;;;;;;;32.27;37.17;100950.34;144994;604;5002;-86
2021/08/02 05:55:17;;;;;;;22.67;11.43;;;;;;;32.31;37.18;100946.53;144994;585;5002;-83
2021/08/02 05:57:44;;;;;;;25.55;11.73;;;;;;;32.28;37.44;100940.47;144994;632;5002;-83
2021/08/02 06:00:12;;;;;;;25.25;11.63;;;;;;;32.26;37.17;100940.59;144994;565;5002;-83
2021/08/02 06:02:38;;;;;;;24.17;10.30;;;;;;;32.23;37.48;100942.56;144994;591;5002;-84
2021/08/02 06:05:05;;;;;;;26.77;11.07;;;;;;;32.22;36.98;100941.69;144994;633;4565;-84
2021/08/02 06:07:35;;;;;;;22.87;10.40;;;;;;;32.29;37.18;100934.16;144994;607;4569;-83
2021/08/02 06:10:02;;;;;;;27.52;11.40;;;;;;;32.39;37.07;100923.72;144994;652;4572;-85
2021/08/02 06:12:28;;;;;;;21.40;10.75;;;;;;;32.47;37.15;100922.34;144992;686;6002;-85
2021/08/02 06:14:55;;;;;;;23.15;11.00;;;;;;;32.55;37.19;100924.56;144992;658;6002;-85
2021/08/02 06:17:21;;;;;;;21.27;11.73;;;;;;;32.54;36.08;100912.94;144992;634;6002;-83
2021/08/02 06:19:48;;;;;;;28.17;16.90;;;;;;;32.46;36.56;100923.28;144992;733;6002;-83
2021/08/02 06:22:14;;;;;;;22.98;13.35;;;;;;;32.50;37.09;100918.59;144992;611;6002;-84
2021/08/02 06:24:42;;;;;;;23.08;13.70;;;;;;;32.60;37.25;100921.63;144992;589;6002;-83
2021/08/02 06:27:09;;;;;;;23.20;13.27;;;;;;;32.69;37.14;100923.75;144992;581;6002;-84
2021/08/02 06:29:36;;;;;;;21.80;13.70;;;;;;;32.74;37.14;100921.69;144992;629;6002;-85
2021/08/02 06:32:03;;;;;;;29.10;14.57;;;;;;;32.66;37.35;100924.81;144992;589;6002;-84
2021/08/02 06:34:30;;;;;;;27.50;13.52;;;;;;;32.72;37.74;100928.94;144992;646;6002;-84
2021/08/02 06:36:56;;;;;;;26.75;14.15;;;;;;;32.76;37.28;100922.44;144992;570;6002;-82
2021/08/02 06:39:23;;;;;;;30.65;17.05;;;;;;;32.77;36.02;100915.22;144992;650;6002;-83
2021/08/02 06:41:49;;;;;;;31.12;15.80;;;;;;;32.81;37.55;100923.03;144992;697;6002;-84
2021/08/02 06:44:19;;;;;;;33.45;14.48;;;;;;;32.84;37.22;100914.78;144992;616;6002;-85
2021/08/02 06:46:46;;;;;;;32.67;14.30;;;;;;;32.93;37.11;100920.53;144992;600;6002;-84
2021/08/02 06:49:13;;;;;;;35.17;15.35;;;;;;;33.03;37.29;100919.88;144992;602;6002;-84
2021/08/02 06:51:40;;;;;;;24.75;13.52;;;;;;;33.15;37.03;100914.72;144992;575;6002;-84
2021/08/02 06:54:06;;;;;;;33.63;13.55;;;;;;;33.22;36.97;100914.28;144992;576;6002;-84
2021/08/02 06:56:33;;;;;;;30.80;12.50;;;;;;;33.28;36.87;100921.09;144992;616;6002;-81
2021/08/02 06:58:59;;;;;;;25.60;12.57;;;;;;;33.35;36.73;100908.13;144992;596;6002;-83
2021/08/02 07:01:26;;;;;;;21.83;11.23;;;;;;;33.40;36.85;100914.06;144992;631;6002;-83
2021/08/02 07:03:52;;;;;;;18.75;11.32;;;;;;;33.42;36.82;100912.13;144992;714;6002;-83
2021/08/02 07:06:18;;;;;;;22.75;11.32;;;;;;;33.43;36.55;100903.12;144992;579;6002;-84
2021/08/02 07:08:45;;;;;;;24.27;11.20;;;;;;;33.41;36.98;100907.75;144992;588;6002;-84
2021/08/02 07:11:12;;;;;;;25.30;10.95;;;;;;;33.40;36.72;100904.16;144992;569;6002;-84
2021/08/02 07:13:38;;;;;;;25.55;10.35;;;;;;;33.31;37.25;100909.25;144992;600;6002;-83
2021/08/02 07:16:05;;;;;;;20.73;9.30;;;;;;;33.32;37.38;100908.31;144992;596;6002;-84
2021/08/02 07:18:33;;;;;;;17.55;10.25;;;;;;;33.42;37.77;100904.94;144992;588;6002;-84
2021/08/02 07:21:01;;;;;;;18.48;9.00;;;;;;;33.45;38.64;100917.31;144992;568;6002;-83
2021/08/02 07:23:27;;;;;;;23.38;9.25;;;;;;;33.55;37.82;100913.09;144992;590;6002;-83
2021/08/02 07:25:53;;;;;;;20.70;8.32;;;;;;;33.59;38.55;100911.94;144992;599;6002;-82
2021/08/02 07:28:20;;;;;;;17.95;7.78;;;;;;;33.56;39.60;100919.34;144992;582;6002;-84
2021/08/02 07:30:47;;;;;;;17.00;8.82;;;;;;;33.44;39.94;100921.00;144992;594;6002;-83
2021/08/02 07:33:13;;;;;;;18.50;8.32;;;;;;;33.40;40.29;100922.13;144992;574;6002;-83
2021/08/02 07:35:40;;;;;;;16.73;8.90;;;;;;;33.33;40.58;100921.66;144992;579;6002;-82
2021/08/02 07:38:06;;;;;;;14.95;8.40;;;;;;;33.25;41.27;100924.84;144992;679;6002;-83
2021/08/02 07:40:32;;;;;;;17.73;8.30;;;;;;;33.24;41.62;100915.03;144992;582;6002;-83
2021/08/02 07:42:59;;;;;;;15.15;8.60;;;;;;;33.17;41.98;100911.00;144992;579;6002;-82
2021/08/02 07:45:26;;;;;;;16.08;7.70;;;;;;;33.26;41.49;100917.63;144992;626;6002;-83
2021/08/02 07:47:52;;;;;;;13.70;7.60;;;;;;;33.17;43.11;100915.47;144992;577;6002;-83
2021/08/02 07:50:20;;;;;;;18.73;8.15;;;;;;;33.36;42.15;100913.41;144992;587;6002;-84
2021/08/02 07:52:46;;;;;;;22.30;8.55;;;;;;;33.37;42.53;100908.88;144992;601;6002;-83
2021/08/02 07:55:14;;;;;;;20.35;8.70;;;;;;;33.30;43.54;100910.22;144992;572;6002;-84
2021/08/02 07:57:41;;;;;;;19.45;8.52;;;;;;;33.34;44.12;100909.94;144992;612;6002;-82
2021/08/02 08:00:11;;;;;;;17.02;8.52;;;;;;;33.28;44.10;100909.47;144992;669;6002;-85
2021/08/02 08:02:37;;;;;;;21.20;9.23;;;;;;;33.13;45.44;100909.44;144992;570;6002;-86
2021/08/02 08:05:05;;;;;;;20.12;8.57;;;;;;;33.11;45.19;100908.66;144992;580;6002;-84
2021/08/02 08:07:59;;;;;;;17.85;8.48;;;;;;;33.07;45.56;100901.72;144992;704;6002;-84
2021/08/02 08:10:27;;;;;;;18.48;9.43;;;;;;;33.07;45.68;100907.13;144992;565;6002;-83
2021/08/02 08:12:54;;;;;;;19.87;9.65;;;;;;;33.14;46.26;100903.09;144992;577;6002;-83
2021/08/02 08:15:23;;;;;;;20.50;9.30;;;;;;;33.13;46.90;100898.66;144992;570;6002;-83
2021/08/02 08:17:50;;;;;;;15.30;8.95;;;;;;;32.92;48.47;100906.25;144992;585;6002;-83
2021/08/02 08:20:19;;;;;;;15.45;8.25;;;;;;;32.97;47.97;100904.13;144991;581;6002;-82
2021/08/02 08:22:46;;;;;;;14.38;8.25;;;;;;;32.89;47.93;100901.06;144991;586;6002;-83
2021/08/02 08:25:14;;;;;;;17.48;7.55;;;;;;;32.84;47.97;100906.72;144992;590;6002;-85
2021/08/02 08:27:41;;;;;;;17.15;8.15;;;;;;;32.94;49.72;100901.63;144992;599;6002;-81
2021/08/02 08:30:09;;;;;;;16.67;7.97;;;;;;;32.85;49.40;100907.56;144992;668;6002;-81
2021/08/02 08:32:39;;;;;;;17.37;7.97;;;;;;;32.77;49.93;100900.00;144992;576;6002;-84
2021/08/02 08:35:06;;;;;;;16.08;7.93;;;;;;;32.77;51.82;100902.69;144992;570;6002;-84
2021/08/02 08:37:34;;;;;;;15.88;7.43;;;;;;;32.83;50.41;100904.97;144992;563;6002;-82
2021/08/02 08:40:01;;;;;;;19.80;7.80;;;;;;;32.77;52.59;100897.31;144991;713;6002;-83
2021/08/02 08:42:28;;;;;;;13.93;7.82;;;;;;;32.80;51.99;100899.78;144992;608;6002;-81
2021/08/02 08:44:55;;;;;;;13.32;7.95;;;;;;;32.79;52.27;100898.06;144992;565;6002;-85
2021/08/02 08:47:22;;;;;;;13.23;7.50;;;;;;;32.72;52.88;100894.91;144992;566;6002;-81
2021/08/02 08:49:48;;;;;;;16.15;7.40;;;;;;;32.65;53.68;100895.34;144992;582;6002;-82
2021/08/02 08:52:15;;;;;;;14.07;8.18;;;;;;;32.58;53.40;100891.25;144992;623;6002;-83
2021/08/02 08:54:42;;;;;;;17.00;7.50;;;;;;;32.71;53.97;100897.69;144992;569;6002;-83
2021/08/02 08:57:12;;;;;;;16.33;7.75;;;;;;;32.76;54.15;100905.47;144992;615;6002;-85
2021/08/02 09:00:05;;;;;;;14.50;7.93;;;;;;;32.71;54.29;100884.25;144992;593;6002;-83
2021/08/02 09:02:31;;;;;;;15.27;7.95;;;;;;;32.69;54.09;100888.81;144992;617;6004;-85
2021/08/02 09:05:02;;;;;;;15.27;7.55;;;;;;;32.68;54.10;100889.81;144992;565;6004;-83
2021/08/02 09:07:47;;;;;;;18.60;8.05;;;;;;;32.72;53.88;100891.31;144992;641;6004;-82
2021/08/02 09:10:21;;;;;;;16.40;8.10;;;;;;;32.65;54.32;100887.28;144991;561;6000;-83
2021/08/02 09:12:48;;;;;;;;;;;;;;;32.47;54.81;100887.41;144997;912;6002;-84
2021/08/02 09:15:15;;;;;;;11.75;8.32;;;;;;;32.38;54.59;100887.94;144997;597;6002;-83
2021/08/02 09:17:41;;;;;;;16.27;7.82;;;;;;;32.40;54.56;100880.66;144992;628;6002;-82
2021/08/02 09:20:24;;;;;;;14.90;7.95;;;;;;;32.35;54.45;100882.75;144992;592;6002;-84
2021/08/02 09:22:52;;;;;;;16.60;9.23;;;;;;;32.26;56.51;100869.88;144992;588;6002;-82
2021/08/02 09:25:21;;;;;;;17.95;8.85;;;;;;;32.44;55.32;100867.94;144992;600;6002;-85
2021/08/02 09:27:51;;;;;;;14.27;7.90;;;;;;;32.54;55.69;100875.31;144992;600;6002;-83
2021/08/02 09:30:29;;;;;;;14.95;8.30;;;;;;;32.55;55.84;100873.53;144992;598;6002;-84
2021/08/02 09:33:07;;;;;;;15.02;7.53;;;;;;;32.70;55.18;100872.59;144992;658;6002;-85
2021/08/02 09:35:39;;;;;;;18.95;8.50;;;;;;;32.71;54.75;100860.06;144992;658;6002;-84
2021/08/02 09:38:11;;;;;;;16.37;8.50;;;;;;;32.84;54.05;100866.38;144992;564;6002;-85
2021/08/02 09:40:58;;;;;;;14.43;8.23;;;;;;;32.96;53.79;100864.75;144992;572;6002;-83
2021/08/02 09:43:28;;;;;;;16.67;8.23;;;;;;;32.96;53.57;100858.53;144992;567;6004;-85
2021/08/02 09:45:57;;;;;;;13.35;7.22;;;;;;;33.04;52.90;100857.09;144992;627;6004;-83
2021/08/02 09:48:43;;;;;;;14.98;7.75;;;;;;;32.99;51.41;100859.19;144992;600;6004;-84
2021/08/02 09:51:17;;;;;;;12.18;7.45;;;;;;;33.18;51.30;100850.00;144992;569;6004;-84
2021/08/02 09:53:49;;;;;;;12.63;7.25;;;;;;;33.17;51.54;100849.16;144992;590;6004;-85
2021/08/02 09:56:21;;;;;;;11.07;7.10;;;;;;;33.30;50.96;100849.22;144992;577;6004;-80
2021/08/02 09:58:48;;;;;;;14.60;6.85;;;;;;;33.45;48.65;100850.06;144992;610;6004;-84
2021/08/02 10:01:19;;;;;;;15.15;7.72;;;;;;;33.55;48.73;100853.00;144992;585;6004;-85
2021/08/02 10:03:47;;;;;;;15.38;7.60;;;;;;;33.51;48.57;100851.50;144992;613;6004;-86
2021/08/02 10:06:15;;;;;;;16.10;7.50;;;;;;;33.60;48.36;100841.00;144991;737;6000;-86
2021/08/02 10:08:42;;;;;;;13.55;6.97;;;;;;;33.60;47.45;100840.16;144992;569;6002;-86
2021/08/02 10:11:09;;;;;;;15.90;7.30;;;;;;;33.69;47.42;100844.06;144992;567;6002;-84
2021/08/02 10:13:43;;;;;;;15.68;7.22;;;;;;;33.54;47.40;100846.78;144992;636;6002;-85
2021/08/02 10:16:26;;;;;;;;;;;;;;;33.52;46.68;100837.94;144997;912;6002;-85
2021/08/02 10:18:53;;;;;;;15.70;7.12;;;;;;;33.56;46.16;100834.09;144997;605;6002;-84
2021/08/02 10:21:20;;;;;;;10.13;6.87;;;;;;;33.54;44.52;100825.25;144992;579;6002;-84
2021/08/02 10:23:47;;;;;;;13.35;6.37;;;;;;;33.75;44.11;100819.47;144992;570;6002;-85
2021/08/02 10:26:29;;;;;;;15.05;6.60;;;;;;;33.84;43.30;100816.16;144992;578;6002;-82
2021/08/02 10:29:02;;;;;;;14.25;6.60;;;;;;;33.88;42.35;100828.44;144992;596;6002;-83
2021/08/02 10:31:41;;;;;;;13.48;6.60;;;;;;;33.92;42.80;100811.13;144992;666;6002;-83
2021/08/02 10:34:22;;;;;;;11.38;6.50;;;;;;;33.78;41.76;100809.34;144992;609;6002;-84
2021/08/02 10:37:08;;;;;;;12.77;6.10;;;;;;;34.07;41.91;100805.66;144992;748;6002;-86
2021/08/02 10:39:36;;;;;;;11.10;5.75;;;;;;;34.23;40.81;100805.50;144992;572;6004;-84
2021/08/02 10:42:13;;;;;;;14.00;6.53;;;;;;;34.37;39.04;100797.34;144992;591;6004;-84
2021/08/02 10:44:51;;;;;;;12.07;6.57;;;;;;;34.39;37.52;100794.53;144992;631;6004;-83
2021/08/02 10:47:17;;;;;;;13.70;6.78;;;;;;;34.32;38.16;100794.97;144992;567;6004;-83
2021/08/02 10:49:51;;;;;;;18.00;7.30;;;;;;;34.54;38.55;100796.16;144992;585;6004;-84
2021/08/02 10:52:30;;;;;;;19.75;6.37;;;;;;;34.56;37.58;100796.91;144992;580;6004;-85
2021/08/02 10:55:03;;;;;;;11.75;6.72;;;;;;;34.52;35.43;100798.09;144991;575;6000;-86
2021/08/02 10:57:29;;;;;;;14.13;7.07;;;;;;;34.54;36.77;100793.47;144992;564;6002;-84
2021/08/02 10:59:56;;;;;;;11.57;5.97;;;;;;;34.45;34.83;100788.72;144992;563;6002;-81
2021/08/02 11:02:23;;;;;;;9.70;5.90;;;;;;;34.57;36.79;100787.00;144992;569;6002;-84
2021/08/02 11:04:54;;;;;;;12.60;5.37;;;;;;;34.64;35.69;100785.59;144992;646;6002;-86
2021/08/02 11:07:22;;;;;;;14.45;6.28;;;;;;;34.61;34.79;100783.97;144992;594;6002;-85
2021/08/02 11:09:51;;;;;;;16.27;6.10;;;;;;;34.77;34.11;100785.63;144992;595;6002;-84
2021/08/02 11:12:24;;;;;;;12.23;5.80;;;;;;;34.89;34.61;100771.25;144992;570;6002;-86
2021/08/02 11:15:02;;;;;;;11.98;5.18;;;;;;;35.04;33.28;100775.53;144992;593;6002;-82
2021/08/02 11:17:31;;;;;;;13.13;5.75;;;;;;;35.19;32.92;100760.06;144992;576;6002;-84
2021/08/02 11:20:11;;;;;;;11.65;5.57;;;;;;;35.12;31.91;100760.62;144992;617;6002;-83
2021/08/02 11:22:55;;;;;;;14.65;6.00;;;;;;;35.11;32.88;100767.00;144992;580;6002;-83
2021/08/02 11:25:33;;;;;;;11.65;5.20;;;;;;;35.06;32.24;100754.72;144992;631;6002;-84
2021/08/02 11:28:02;;;;;;;11.27;5.40;;;;;;;34.94;33.07;100747.53;144992;619;6002;-83
2021/08/02 11:30:30;;;;;;;17.08;5.25;;;;;;;35.08;32.76;100753.72;144992;628;6002;-83
2021/08/02 11:32:58;;;;;;;16.58;5.82;;;;;;;35.05;32.27;100744.91;144992;586;6002;-89
2021/08/02 11:35:37;;;;;;;14.38;5.40;;;;;;;35.08;32.74;100741.13;144992;580;6002;-86
2021/08/02 11:38:09;;;;;;;12.00;4.75;;;;;;;35.13;31.87;100740.78;144992;575;6010;-83
2021/08/02 11:40:50;;;;;;;9.77;4.85;;;;;;;35.23;32.89;100744.53;144992;572;6003;-85
2021/08/02 11:43:32;;;;;;;;;;;;;;;;;;;;;